Oyhat, Washington
Current Conditions -  °F | °C
As of 6:30 PM on Thursday 20 Nov 2014 (Local Time) from KHQM Reporting Station
Overcast Overcast  
Wind Chill: 11°   Ceiling: 2300
Heat Index: 11°   Visibility: 7mi
Dew Point:   Wind: 8mph
Humidity: 92%   Direction: 90°E
Pressure: 29.91"   Gusts: NA
Location:  47.0202°N, 123.878°W
Report Text: KHQM 210230Z AUTO 09007KT 7SM FEW015 BKN023 OVC048 11/09 A2991 RMK AO2 T01060094
Loading
Personal Weather Stations






























Interactive Weather Map New forecast layout! Learn more

10-Day Weather Forecast

Advertisements
Track Severe Weather on mobile